createdAt,value
2016-10-19T00:00:26.086Z,37.81
2016-10-19T00:01:26.142Z,37.9
2016-10-19T00:02:26.411Z,37.71
2016-10-19T00:03:26.417Z,37.9
2016-10-19T00:04:26.474Z,37.81
2016-10-19T00:05:26.441Z,37.81
2016-10-19T00:06:26.126Z,37.9
2016-10-19T00:07:26.446Z,37.81
2016-10-19T00:08:26.454Z,37.62
2016-10-19T00:09:26.497Z,37.62
2016-10-19T00:10:26.465Z,37.71
2016-10-19T00:11:26.159Z,37.62
2016-10-19T00:12:26.479Z,37.81
2016-10-19T00:13:26.177Z,37.62
2016-10-19T00:14:26.180Z,37.62
2016-10-19T00:15:26.500Z,37.71
2016-10-19T00:16:26.506Z,37.62
2016-10-19T00:17:26.577Z,37.71
2016-10-19T00:18:27.621Z,37.62
2016-10-19T00:19:26.220Z,37.71
2016-10-19T00:20:26.572Z,37.71
2016-10-19T00:21:26.541Z,38.1
2016-10-19T00:22:26.549Z,37.9
2016-10-19T00:23:26.607Z,37.71
2016-10-19T00:24:26.561Z,37.9
2016-10-19T00:25:26.257Z,37.81
2016-10-19T00:26:26.575Z,37.32
2016-10-19T00:27:26.582Z,37.81
2016-10-19T00:28:26.592Z,37.9
2016-10-19T00:29:27.410Z,37.81
2016-10-19T00:30:26.291Z,38.1
2016-10-19T00:31:26.610Z,37.81
2016-10-19T00:32:26.616Z,37.9
2016-10-19T00:33:26.626Z,38
2016-10-19T00:34:26.682Z,38
2016-10-19T00:35:26.636Z,38
2016-10-19T00:36:26.644Z,37.71
2016-10-19T00:37:26.652Z,38.1
2016-10-19T00:38:26.709Z,38
2016-10-19T00:39:26.404Z,37.9
2016-10-19T00:40:27.160Z,37.98
2016-10-19T00:41:26.369Z,37.81
2016-10-19T00:42:26.722Z,37.98
2016-10-19T00:43:26.691Z,37.98
2016-10-19T00:44:27.752Z,38
2016-10-19T00:45:26.394Z,38
2016-10-19T00:46:26.401Z,37.88
2016-10-19T00:47:26.728Z,37.52
2016-10-19T00:48:26.729Z,37.4
2016-10-19T00:49:26.420Z,37.81
2016-10-19T00:50:26.428Z,37.9
2016-10-19T00:51:26.748Z,37.71
2016-10-19T00:52:26.753Z,37.9
2016-10-19T00:53:26.764Z,37.9
2016-10-19T00:54:26.505Z,37.81
2016-10-19T00:55:27.627Z,37.81
2016-10-19T00:56:26.469Z,37.81
2016-10-19T00:57:26.476Z,37.9
2016-10-19T00:58:26.483Z,37.9
2016-10-19T00:59:26.488Z,37.9
2016-10-19T01:00:26.494Z,37.81
2016-10-19T01:01:26.869Z,37.9
2016-10-19T01:02:26.507Z,37.79
2016-10-19T01:03:26.516Z,37.7
2016-10-19T01:04:26.872Z,37.62
2016-10-19T01:05:26.579Z,37.62
2016-10-19T01:06:27.370Z,37.81
2016-10-19T01:07:26.857Z,37.52
2016-10-19T01:08:26.552Z,37.42
2016-10-19T01:09:26.869Z,37.42
2016-10-19T01:10:26.928Z,37.62
2016-10-19T01:11:26.884Z,37.04
2016-10-19T01:12:26.892Z,37.52
2016-10-19T01:13:26.900Z,37.32
2016-10-19T01:14:26.903Z,36.94
2016-10-19T01:15:26.913Z,36.94
2016-10-19T01:16:26.921Z,37.04
2016-10-19T01:17:27.213Z,37.32
2016-10-19T01:18:26.670Z,36.94
2016-10-19T01:19:26.937Z,37.42
2016-10-19T01:20:26.633Z,37.23
2016-10-19T01:21:26.950Z,37.32
2016-10-19T01:22:27.009Z,37.42
2016-10-19T01:23:26.657Z,37.42
2016-10-19T01:24:26.661Z,37.23
2016-10-19T01:25:26.980Z,37.32
2016-10-19T01:26:27.774Z,37.32
2016-10-19T01:27:26.724Z,37.13
2016-10-19T01:28:27.057Z,37.32
2016-10-19T01:29:26.695Z,37.23
2016-10-19T01:30:26.750Z,37.23
2016-10-19T01:31:27.021Z,37.23
2016-10-19T01:32:26.715Z,37.13
2016-10-19T01:33:26.774Z,36.94
2016-10-19T01:34:26.727Z,37.04
2016-10-19T01:35:27.099Z,36.65
2016-10-19T01:36:27.055Z,36.94
2016-10-19T01:37:26.750Z,36.94
2016-10-19T01:38:27.118Z,36.84
2016-10-19T01:39:27.128Z,36.84
2016-10-19T01:40:27.184Z,36.84
2016-10-19T01:41:27.891Z,36.74
2016-10-19T01:42:26.833Z,36.94
2016-10-19T01:43:26.790Z,36.74
2016-10-19T01:44:27.111Z,36.46
2016-10-19T01:45:26.801Z,36.55
2016-10-19T01:46:26.812Z,36.55
2016-10-19T01:47:26.817Z,36.46
2016-10-19T01:48:26.824Z,36.65
2016-10-19T01:49:27.146Z,36.65
2016-10-19T01:50:27.189Z,36.46
2016-10-19T01:51:26.886Z,36.55
2016-10-19T01:52:26.854Z,36.55
2016-10-19T01:53:26.860Z,36.55
2016-10-19T01:54:26.867Z,36.47
2016-10-19T01:55:26.873Z,36.36
2016-10-19T01:56:27.194Z,36.47
2016-10-19T01:57:27.199Z,36.36
2016-10-19T01:58:26.894Z,36.46
2016-10-19T01:59:26.900Z,36.57
2016-10-19T02:00:27.218Z,36.46
2016-10-19T02:01:27.277Z,36.55
2016-10-19T02:02:27.231Z,36.46
2016-10-19T02:03:27.687Z,36.46
2016-10-19T02:04:27.249Z,36.46
2016-10-19T02:05:27.251Z,36.57
2016-10-19T02:06:27.261Z,36.36
2016-10-19T02:07:27.317Z,36.46
2016-10-19T02:08:27.275Z,36.55
2016-10-19T02:09:27.282Z,36.55
2016-10-19T02:10:27.027Z,36.46
2016-10-19T02:11:26.984Z,36.55
2016-10-19T02:12:27.305Z,36.57
2016-10-19T02:13:27.309Z,36.38
2016-10-19T02:14:27.904Z,36.38
2016-10-19T02:15:27.012Z,36.36
2016-10-19T02:16:27.328Z,36.47
2016-10-19T02:17:27.024Z,36.38
2016-10-19T02:18:27.346Z,36.47
2016-10-19T02:19:27.349Z,36.47
2016-10-19T02:20:27.359Z,36.57
2016-10-19T02:21:27.101Z,36.47
2016-10-19T02:22:27.058Z,36.38
2016-10-19T02:23:27.378Z,36.38
2016-10-19T02:24:27.072Z,35.99
2016-10-19T02:25:27.844Z,36.18
2016-10-19T02:26:27.400Z,35.89
2016-10-19T02:27:27.455Z,36.08
2016-10-19T02:28:27.122Z,36.18
2016-10-19T02:29:27.519Z,36.18
2016-10-19T02:30:27.117Z,35.89
2016-10-19T02:31:27.121Z,36.08
2016-10-19T02:32:27.491Z,35.99
2016-10-19T02:33:27.136Z,35.89
2016-10-19T02:34:27.141Z,35.99
2016-10-19T02:35:27.200Z,35.89
2016-10-19T02:36:28.322Z,36.18
2016-10-19T02:37:27.163Z,35.99
2016-10-19T02:38:27.482Z,35.8
2016-10-19T02:39:27.227Z,35.8
2016-10-19T02:40:27.496Z,35.89
2016-10-19T02:41:27.192Z,36.18
2016-10-19T02:42:27.511Z,36.18
2016-10-19T02:43:27.518Z,36.16
2016-10-19T02:44:27.211Z,36.18
2016-10-19T02:45:27.269Z,35.99
2016-10-19T02:46:27.540Z,36.16
2016-10-19T02:47:27.598Z,35.89
2016-10-19T02:48:27.588Z,35.99
2016-10-19T02:49:28.538Z,36.08
2016-10-19T02:50:27.254Z,36.08
2016-10-19T02:51:27.573Z,35.97
2016-10-19T02:52:27.265Z,35.78
2016-10-19T02:53:27.274Z,35.89
2016-10-19T02:54:27.591Z,35.88
2016-10-19T02:55:27.606Z,35.88
2016-10-19T02:56:27.656Z,36.18
2016-10-19T02:57:27.302Z,35.97
2016-10-19T02:58:27.810Z,36.28
2016-10-19T02:59:27.678Z,35.89
2016-10-19T03:00:27.636Z,35.88
2016-10-19T03:01:27.328Z,36.07
2016-10-19T03:02:27.649Z,36.28
2016-10-19T03:03:27.655Z,36.18
2016-10-19T03:04:27.384Z,36.07
2016-10-19T03:05:27.669Z,36.28
2016-10-19T03:06:27.677Z,36.18
2016-10-19T03:07:27.371Z,35.99
2016-10-19T03:08:27.377Z,35.89
2016-10-19T03:09:27.433Z,35.88
2016-10-19T03:10:27.755Z,36.18
2016-10-19T03:11:28.799Z,36.18
2016-10-19T03:12:27.769Z,36.08
2016-10-19T03:13:27.726Z,36.07
2016-10-19T03:14:27.422Z,35.68
2016-10-19T03:15:27.789Z,35.68
2016-10-19T03:16:27.749Z,35.7
2016-10-19T03:17:27.456Z,36.07
2016-10-19T03:18:27.759Z,36.26
2016-10-19T03:19:27.451Z,35.88
2016-10-19T03:20:27.512Z,36.08
2016-10-19T03:21:27.779Z,35.89
2016-10-19T03:22:28.686Z,35.89
2016-10-19T03:23:27.534Z,35.68
2016-10-19T03:24:27.802Z,36.08
2016-10-19T03:25:27.559Z,35.97
2016-10-19T03:26:27.824Z,35.7
2016-10-19T03:27:27.872Z,36.08
2016-10-19T03:28:27.831Z,35.78
2016-10-19T03:29:27.556Z,36.08
2016-10-19T03:30:27.631Z,36.07
2016-10-19T03:31:27.588Z,35.7
2016-10-19T03:32:27.644Z,36.18
2016-10-19T03:33:28.815Z,36.18
2016-10-19T03:34:27.559Z,35.7
2016-10-19T03:35:27.875Z,35.6
2016-10-19T03:36:27.572Z,35.8
2016-10-19T03:37:27.579Z,36.18
2016-10-19T03:38:27.899Z,35.58
2016-10-19T03:39:27.593Z,36.16
2016-10-19T03:40:27.601Z,35.99
2016-10-19T03:41:27.607Z,36.18
2016-10-19T03:42:27.614Z,35.7
2016-10-19T03:43:27.987Z,35.7
2016-10-19T03:44:27.636Z,36.38
2016-10-19T03:45:27.949Z,36.38
2016-10-19T03:46:27.644Z,36.47
2016-10-19T03:47:27.651Z,36.28
2016-10-19T03:48:28.022Z,36.57
2016-10-19T03:49:27.980Z,36.38
2016-10-19T03:50:28.032Z,36.38
2016-10-19T03:51:27.991Z,35.6
2016-10-19T03:52:27.998Z,36.28
2016-10-19T03:53:28.007Z,36.28
2016-10-19T03:54:28.012Z,36.38
2016-10-19T03:55:29.013Z,36.57
2016-10-19T03:56:28.024Z,36.18
2016-10-19T03:57:28.272Z,36.28
2016-10-19T03:58:27.724Z,35.99
2016-10-19T03:59:28.047Z,36.08
2016-10-19T04:00:28.055Z,35.8
2016-10-19T04:01:27.747Z,35.7
2016-10-19T04:02:27.804Z,35.8
2016-10-19T04:03:28.076Z,35.7
2016-10-19T04:04:27.821Z,35.6
2016-10-19T04:05:28.087Z,35.41
2016-10-19T04:06:28.092Z,35.41
2016-10-19T04:07:28.201Z,35.41
2016-10-19T04:08:27.945Z,35.41
2016-10-19T04:09:27.850Z,35.5
2016-10-19T04:10:27.809Z,35.5
2016-10-19T04:11:27.814Z,35.41
2016-10-19T04:12:28.136Z,35.5
2016-10-19T04:13:28.191Z,35.41
2016-10-19T04:14:27.837Z,35.41
2016-10-19T04:15:27.842Z,35.5
2016-10-19T04:16:27.849Z,35.31
2016-10-19T04:17:27.858Z,35.12
2016-10-19T04:18:28.215Z,35.31
2016-10-19T04:19:28.182Z,35.21
2016-10-19T04:20:28.188Z,35.31
2016-10-19T04:21:27.931Z,35.21
2016-10-19T04:22:28.203Z,35.41
2016-10-19T04:23:27.898Z,35.41
2016-10-19T04:24:27.910Z,35.41
2016-10-19T04:25:28.273Z,35.41
2016-10-19T04:26:27.915Z,35.6
2016-10-19T04:27:28.236Z,35.5
2016-10-19T04:28:28.294Z,35.41
2016-10-19T04:29:28.248Z,35.5
2016-10-19T04:30:28.257Z,35.5
2016-10-19T04:31:27.953Z,35.5
2016-10-19T04:32:29.201Z,35.5
2016-10-19T04:33:28.279Z,35.21
2016-10-19T04:34:27.971Z,35.41
2016-10-19T04:35:27.977Z,35.21
2016-10-19T04:36:27.985Z,35.41
2016-10-19T04:37:27.996Z,35.41
2016-10-19T04:38:28.348Z,35.5
2016-10-19T04:39:28.008Z,35.41
2016-10-19T04:40:28.013Z,35.31
2016-10-19T04:41:28.333Z,35.41
2016-10-19T04:42:28.026Z,35.21
2016-10-19T04:43:29.296Z,35.5
2016-10-19T04:44:28.041Z,35.41
2016-10-19T04:45:28.414Z,35.41
2016-10-19T04:46:28.367Z,35.31
2016-10-19T04:47:28.374Z,35.31
2016-10-19T04:48:28.068Z,35.31
2016-10-19T04:49:28.074Z,35.31
2016-10-19T04:50:28.083Z,35.5
2016-10-19T04:51:28.410Z,35.21
2016-10-19T04:52:28.097Z,35.31
2016-10-19T04:53:28.105Z,35.12
2016-10-19T04:54:28.850Z,35.21
2016-10-19T04:55:28.428Z,35.5
2016-10-19T04:56:28.126Z,35.21
2016-10-19T04:57:28.128Z,35.5
2016-10-19T04:58:28.186Z,35.49
2016-10-19T04:59:28.194Z,35.41
2016-10-19T05:00:28.461Z,35.41
2016-10-19T05:01:28.156Z,35.49
2016-10-19T05:02:28.166Z,35.5
2016-10-19T05:03:28.174Z,35.39
2016-10-19T05:04:28.537Z,35.5
2016-10-19T05:05:28.788Z,35.39
2016-10-19T05:06:28.190Z,35.39
2016-10-19T05:07:28.198Z,35.5
2016-10-19T05:08:28.519Z,35.39
2016-10-19T05:09:28.528Z,35.39
2016-10-19T05:10:28.220Z,35.49
2016-10-19T05:11:28.539Z,35.49
2016-10-19T05:12:28.545Z,35.49
2016-10-19T05:13:28.600Z,35.49
2016-10-19T05:14:28.248Z,35.39
2016-10-19T05:15:28.566Z,35.49
2016-10-19T05:16:28.263Z,35.6
2016-10-19T05:17:28.611Z,35.39
2016-10-19T05:18:29.428Z,35.41
2016-10-19T05:19:28.283Z,35.58
2016-10-19T05:20:28.601Z,35.6
2016-10-19T05:21:28.296Z,35.5
2016-10-19T05:22:28.612Z,35.5
2016-10-19T05:23:28.622Z,35.5
2016-10-19T05:24:28.317Z,35.41
2016-10-19T05:25:28.890Z,35.49
2016-10-19T05:26:28.329Z,35.39
2016-10-19T05:27:28.651Z,35.31
2016-10-19T05:28:29.188Z,35.5
2016-10-19T05:29:29.771Z,35.58
2016-10-19T05:30:28.356Z,35.41
2016-10-19T05:31:28.713Z,35.1
2016-10-19T05:32:28.371Z,35.49
2016-10-19T05:33:28.689Z,35.49
2016-10-19T05:34:28.710Z,35.2
2016-10-19T05:35:28.701Z,35.39
2016-10-19T05:36:28.401Z,35.5
2016-10-19T05:37:28.408Z,35.49
2016-10-19T05:38:28.412Z,35.31
2016-10-19T05:39:28.465Z,35.41
2016-10-19T05:40:29.576Z,35.29
2016-10-19T05:41:28.746Z,35.39
2016-10-19T05:42:28.800Z,35.39
2016-10-19T05:43:28.494Z,35.1
2016-10-19T05:44:28.449Z,35.39
2016-10-19T05:45:28.459Z,35.5
2016-10-19T05:46:28.828Z,35.58
2016-10-19T05:47:28.821Z,35.39
2016-10-19T05:48:28.478Z,35.39
2016-10-19T05:49:28.795Z,35.39
2016-10-19T05:50:28.490Z,35.49
2016-10-19T05:51:28.503Z,35.39
2016-10-19T05:52:28.506Z,35.39
2016-10-19T05:53:28.666Z,35.39
2016-10-19T05:54:28.884Z,35.49
2016-10-19T05:55:28.526Z,35.39
2016-10-19T05:56:28.844Z,35.29
2016-10-19T05:57:28.541Z,35.29
2016-10-19T05:58:28.859Z,35.2
2016-10-19T05:59:28.555Z,35.39
2016-10-19T06:00:28.908Z,35.39
2016-10-19T06:01:28.879Z,35.49
2016-10-19T06:02:29.988Z,35.49
2016-10-19T06:03:28.620Z,35.49
2016-10-19T06:04:28.936Z,35.39
2016-10-19T06:05:28.908Z,35.39
2016-10-19T06:06:28.911Z,35.29
2016-10-19T06:07:28.919Z,35.49
2016-10-19T06:08:28.614Z,35.49
2016-10-19T06:09:28.935Z,35.39
2016-10-19T06:10:28.991Z,35.49
2016-10-19T06:11:28.947Z,35.49
2016-10-19T06:12:28.957Z,35.39
2016-10-19T06:13:29.749Z,35.58
2016-10-19T06:14:28.967Z,35.39
2016-10-19T06:15:28.661Z,35.49
2016-10-19T06:16:28.980Z,35.39
2016-10-19T06:17:28.675Z,35.49
2016-10-19T06:18:28.995Z,35.39
2016-10-19T06:19:28.688Z,35.49
2016-10-19T06:20:28.694Z,35.58
2016-10-19T06:21:28.700Z,35.58
2016-10-19T06:22:29.053Z,35.49
2016-10-19T06:23:29.026Z,35.58
2016-10-19T06:24:29.536Z,35.49
2016-10-19T06:25:28.814Z,35.58
2016-10-19T06:26:28.786Z,35.68
2016-10-19T06:27:28.793Z,35.39
2016-10-19T06:28:29.663Z,35.58
2016-10-19T06:29:28.757Z,35.58
2016-10-19T06:30:28.763Z,35.39
2016-10-19T06:31:29.084Z,35.49
2016-10-19T06:32:28.773Z,35.49
2016-10-19T06:33:29.096Z,35.58
2016-10-19T06:34:28.792Z,35.49
2016-10-19T06:35:29.110Z,35.39
2016-10-19T06:36:28.803Z,35.49
2016-10-19T06:37:29.123Z,35.39
2016-10-19T06:38:28.817Z,35.58
2016-10-19T06:39:29.487Z,35.58
2016-10-19T06:40:28.879Z,35.49
2016-10-19T06:41:29.149Z,35.39
2016-10-19T06:42:28.977Z,35.39
2016-10-19T06:44:29.170Z,35.58
2016-10-19T06:45:29.213Z,35.39
2016-10-19T06:46:29.184Z,35.49
2016-10-19T06:47:28.878Z,35.49
2016-10-19T06:48:29.198Z,35.58
2016-10-19T06:49:29.206Z,35.49
2016-10-19T06:50:29.699Z,35.49
2016-10-19T06:51:28.904Z,35.58
2016-10-19T06:52:28.914Z,35.49
2016-10-19T06:53:28.954Z,35.58
2016-10-19T06:54:29.238Z,35.68
2016-10-19T06:55:28.935Z,35.68
2016-10-19T06:56:29.252Z,35.49
2016-10-19T06:57:29.258Z,35.49
2016-10-19T06:58:28.951Z,35.39
2016-10-19T06:59:29.322Z,35.29
2016-10-19T07:00:29.281Z,35.49
2016-10-19T07:01:29.526Z,35.49
2016-10-19T07:02:29.294Z,35.39
2016-10-19T07:03:28.990Z,35.39
2016-10-19T07:04:28.995Z,35.39
2016-10-19T07:05:29.313Z,35.49
2016-10-19T07:06:29.321Z,35.39
2016-10-19T07:07:29.379Z,35.39
2016-10-19T07:08:29.332Z,35.49
2016-10-19T07:09:29.338Z,35.58
2016-10-19T07:10:30.255Z,35.39
2016-10-19T07:11:29.407Z,35.39
2016-10-19T07:12:29.609Z,35.49
2016-10-19T07:14:29.373Z,35.29
2016-10-19T07:15:29.066Z,35.78
2016-10-19T07:16:29.076Z,36.16
2016-10-19T07:17:29.544Z,36.16
2016-10-19T07:18:29.138Z,35.68
2016-10-19T07:19:29.656Z,36.26
2016-10-19T07:20:29.154Z,36.36
2016-10-19T07:21:29.420Z,35.68
2016-10-19T07:22:29.428Z,35.88
2016-10-19T07:23:29.437Z,36.55
2016-10-19T07:24:29.489Z,36.34
2016-10-19T07:25:30.348Z,36.44
2016-10-19T07:26:29.139Z,36.44
2016-10-19T07:27:29.489Z,36.34
2016-10-19T07:28:29.742Z,36.53
2016-10-19T07:29:29.161Z,36.44
2016-10-19T07:30:29.169Z,36.34
2016-10-19T07:31:29.488Z,36.16
2016-10-19T07:32:29.237Z,35.39
2016-10-19T07:33:29.187Z,34.83
2016-10-19T07:34:29.506Z,34.84
2016-10-19T07:35:29.817Z,34.45
2016-10-19T07:36:29.208Z,34.17
2016-10-19T07:37:29.536Z,33.8
2016-10-19T07:38:29.532Z,33.51
2016-10-19T07:39:29.591Z,33.02
2016-10-19T07:40:29.234Z,32.65
2016-10-19T07:41:29.554Z,32.46
2016-10-19T07:42:29.247Z,32.28
2016-10-19T07:43:29.617Z,31.89
2016-10-19T07:44:29.263Z,31.7
2016-10-19T07:45:29.267Z,31.42
2016-10-19T07:46:29.581Z,31.04
2016-10-19T07:47:30.522Z,30.47
2016-10-19T07:48:29.601Z,30.95
2016-10-19T07:49:29.296Z,30.47
2016-10-19T07:50:29.303Z,30.37
2016-10-19T07:51:29.308Z,30
2016-10-19T07:52:29.314Z,30.38
2016-10-19T07:53:29.736Z,30
2016-10-19T07:54:29.381Z,30.38
2016-10-19T07:55:29.650Z,30
2016-10-19T07:56:29.755Z,30.29
2016-10-19T07:57:29.710Z,30.19
2016-10-19T07:58:29.358Z,30.77
2016-10-19T07:59:29.362Z,30.19
2016-10-19T08:00:29.370Z,30.19
2016-10-19T08:01:29.377Z,30.01
2016-10-19T08:02:29.696Z,30.5
2016-10-19T08:03:29.753Z,30.21
2016-10-19T08:04:29.709Z,30.4
2016-10-19T08:05:29.715Z,30.3
2016-10-19T08:06:29.409Z,30.11
2016-10-19T08:07:29.418Z,30.21
2016-10-19T08:08:29.778Z,30.01
2016-10-19T08:09:30.887Z,30.01
2016-10-19T08:10:29.804Z,30.3
2016-10-19T08:11:29.891Z,29.91
2016-10-19T08:12:29.765Z,30.01
2016-10-19T08:14:29.777Z,29.64
2016-10-19T08:15:29.816Z,29.72
2016-10-19T08:16:29.479Z,29.43
2016-10-19T08:17:29.798Z,29.35
2016-10-19T08:18:29.855Z,29.64
2016-10-19T08:19:29.860Z,29.62
2016-10-19T08:20:29.818Z,29.62
2016-10-19T08:21:29.511Z,29.52
2016-10-19T08:22:29.580Z,29.44
2016-10-19T08:23:29.851Z,29.62
2016-10-19T08:24:29.535Z,29.74
2016-10-19T08:25:29.538Z,29.43
2016-10-19T08:26:29.545Z,29.44
2016-10-19T08:27:29.965Z,29.64
2016-10-19T08:28:29.874Z,29.64
2016-10-19T08:29:29.566Z,29.64
2016-10-19T08:30:29.887Z,29.05
2016-10-19T08:31:30.847Z,29.15
2016-10-19T08:32:29.900Z,29.15
2016-10-19T08:33:29.732Z,29.05
2016-10-19T08:34:29.915Z,29.15
2016-10-19T08:35:29.925Z,29.74
2016-10-19T08:36:29.668Z,29.15
2016-10-19T08:37:29.623Z,29.54
2016-10-19T08:38:29.942Z,29.64
2016-10-19T08:39:29.951Z,29.54
2016-10-19T08:40:29.645Z,29.52
2016-10-19T08:41:29.965Z,29.52
2016-10-19T08:42:30.920Z,30.01
2016-10-19T08:43:29.977Z,30.3
2016-10-19T08:44:29.723Z,30.4
2016-10-19T08:45:29.992Z,29.91
2016-10-19T08:46:29.999Z,30.4
2016-10-19T08:47:29.691Z,29.72
2016-10-19T08:48:30.013Z,29.52
2016-10-19T08:49:30.016Z,29.72
2016-10-19T08:50:29.714Z,29.33
2016-10-19T08:51:30.086Z,29.72
2016-10-19T08:52:29.780Z,29.52
2016-10-19T08:53:30.336Z,29.62
2016-10-19T08:54:30.054Z,29.82
2016-10-19T08:55:30.062Z,29.82
2016-10-19T08:56:30.121Z,29.72
2016-10-19T08:57:30.828Z,30.11
2016-10-19T08:58:30.082Z,30.01
2016-10-19T08:59:30.089Z,30.3
2016-10-19T09:00:30.146Z,30.01
2016-10-19T09:01:30.106Z,30.4
2016-10-19T09:02:30.119Z,30.01
2016-10-19T09:03:29.854Z,29.91
2016-10-19T09:04:30.125Z,30.22
2016-10-19T09:05:30.181Z,30.32
2016-10-19T09:06:30.137Z,30.02
2016-10-19T09:07:30.152Z,30.3
2016-10-19T09:08:30.505Z,30.51
2016-10-19T09:09:29.845Z,30.32
2016-10-19T09:10:30.166Z,30.12
2016-10-19T09:11:30.174Z,30.41
2016-10-19T09:12:30.182Z,30.41
2016-10-19T09:14:29.882Z,30.32
2016-10-19T09:15:30.204Z,30.22
2016-10-19T09:16:29.894Z,30.32
2016-10-19T09:17:29.903Z,30.8
2016-10-19T09:18:30.276Z,30.02
2016-10-19T09:19:30.530Z,30.51
2016-10-19T09:20:30.284Z,29.83
2016-10-19T09:21:29.984Z,29.93
2016-10-19T09:22:29.987Z,30.51
2016-10-19T09:23:30.311Z,30.32
2016-10-19T09:24:29.991Z,30.12
2016-10-19T09:25:29.962Z,30.22
2016-10-19T09:26:29.967Z,30.32
2016-10-19T09:27:29.991Z,30.51
2016-10-19T09:28:29.984Z,29.93
2016-10-19T09:29:30.438Z,29.83
2016-10-19T09:30:30.047Z,30.02
2016-10-19T09:31:30.321Z,30.02
2016-10-19T09:32:30.324Z,30.12
2016-10-19T09:33:30.333Z,30.22
2016-10-19T09:34:30.337Z,30.32
2016-10-19T09:35:30.344Z,30.41
2016-10-19T09:36:30.092Z,30.12
2016-10-19T09:37:30.098Z,30.02
2016-10-19T09:38:30.101Z,29.93
2016-10-19T09:39:31.527Z,30.32
2016-10-19T09:40:30.119Z,30.51
2016-10-19T09:41:30.377Z,30.41
2016-10-19T09:42:30.419Z,30.32
2016-10-19T09:43:37.728Z,30.41
2016-10-19T09:44:30.410Z,30.22
2016-10-19T09:45:30.102Z,30.41
2016-10-19T09:46:30.428Z,30.12
2016-10-19T09:47:30.119Z,30.02
2016-10-19T09:48:30.128Z,30.02
2016-10-19T09:49:30.134Z,30.41
2016-10-19T09:50:30.454Z,30.02
2016-10-19T09:51:30.466Z,30.32
2016-10-19T09:52:30.156Z,30.02
2016-10-19T09:53:30.213Z,30.32
2016-10-19T09:54:31.571Z,30.32
2016-10-19T09:55:30.488Z,30.51
2016-10-19T09:56:30.496Z,30.32
2016-10-19T09:57:30.227Z,30.41
2016-10-19T09:58:30.198Z,30.41
2016-10-19T09:59:30.305Z,30.32
2016-10-19T10:00:30.260Z,30.41
2016-10-19T10:01:30.535Z,30.22
2016-10-19T10:02:30.540Z,30.41
2016-10-19T10:03:30.437Z,30.41
2016-10-19T10:04:30.247Z,30.61
2016-10-19T10:05:30.250Z,30.71
2016-10-19T10:06:30.258Z,30.41
2016-10-19T10:07:30.626Z,30.71
2016-10-19T10:08:30.586Z,30.61
2016-10-19T10:09:30.349Z,30.71
2016-10-19T10:10:30.600Z,30.71
2016-10-19T10:11:30.609Z,30.8
2016-10-19T10:12:30.616Z,30.8
2016-10-19T10:13:30.672Z,30.51
2016-10-19T10:14:30.628Z,30.71
2016-10-19T10:15:30.688Z,30.51
2016-10-19T10:16:31.551Z,30.32
2016-10-19T10:17:30.652Z,30.61
2016-10-19T10:18:30.397Z,30.41
2016-10-19T10:19:30.679Z,31
2016-10-19T10:20:30.361Z,31.1
2016-10-19T10:21:30.619Z,30.8
2016-10-19T10:22:30.737Z,30.9
2016-10-19T10:23:30.698Z,30.61
2016-10-19T10:24:30.389Z,30.8
2016-10-19T10:25:30.712Z,30.41
2016-10-19T10:26:30.405Z,31.1
2016-10-19T10:27:31.679Z,31.19
2016-10-19T10:28:30.426Z,30.61
2016-10-19T10:29:30.478Z,30.61
2016-10-19T10:30:30.435Z,31
2016-10-19T10:31:30.754Z,30.41
2016-10-19T10:32:30.450Z,30.51
2016-10-19T10:33:30.772Z,30.61
2016-10-19T10:34:30.467Z,30.62
2016-10-19T10:35:30.840Z,30.43
2016-10-19T10:36:30.481Z,30.71
2016-10-19T10:37:30.488Z,30.8
2016-10-19T10:38:31.445Z,31
2016-10-19T10:39:30.505Z,30.9
2016-10-19T10:40:30.824Z,31.29
2016-10-19T10:41:30.829Z,31.29
2016-10-19T10:42:30.842Z,31.19
2016-10-19T10:43:30.849Z,31.19
2016-10-19T10:44:30.541Z,31.37
2016-10-19T10:45:30.879Z,31.1
2016-10-19T10:46:30.869Z,31.1
2016-10-19T10:47:30.876Z,30.51
2016-10-19T10:48:30.571Z,30.8
2016-10-19T10:49:31.743Z,31
2016-10-19T10:50:30.904Z,31.1
2016-10-19T10:51:30.958Z,30.8
2016-10-19T10:52:30.600Z,31.1
2016-10-19T10:53:30.658Z,31.19
2016-10-19T10:54:30.667Z,30.71
2016-10-19T10:55:30.673Z,31.19
2016-10-19T10:56:30.630Z,30.9
2016-10-19T10:57:31.003Z,31.1
2016-10-19T10:58:30.895Z,31.38
2016-10-19T10:59:30.966Z,31.38
2016-10-19T11:00:31.876Z,31.29
2016-10-19T11:01:30.669Z,31.29
2016-10-19T11:02:30.679Z,31.19
2016-10-19T11:03:30.683Z,31.29
2016-10-19T11:04:31.102Z,31.38
2016-10-19T11:05:30.748Z,31.38
2016-10-19T11:06:30.708Z,31.38
2016-10-19T11:07:30.717Z,31.1
2016-10-19T11:08:31.038Z,31.19
2016-10-19T11:09:31.046Z,30.71
2016-10-19T11:10:30.737Z,30.61
2016-10-19T11:11:31.600Z,31.19
2016-10-19T11:12:31.071Z,30.91
2016-10-19T11:13:30.808Z,31.6
2016-10-19T11:14:31.080Z,30.82
2016-10-19T11:15:30.776Z,31.01
2016-10-19T11:16:31.096Z,31.3
2016-10-19T11:17:30.791Z,31.01
2016-10-19T11:18:31.111Z,31.21
2016-10-19T11:19:30.855Z,31.21
2016-10-19T11:20:31.130Z,31.3
2016-10-19T11:21:30.820Z,31.5
2016-10-19T11:22:31.380Z,31.7
2016-10-19T11:23:31.151Z,31.4
2016-10-19T11:24:31.171Z,31.4
2016-10-19T11:25:31.219Z,31.6
2016-10-19T11:26:31.879Z,31.6
2016-10-19T11:27:31.187Z,31.5
2016-10-19T11:28:31.241Z,31.79
2016-10-19T11:29:30.885Z,32.08
2016-10-19T11:30:30.893Z,32.18
2016-10-19T11:31:30.899Z,31.98
2016-10-19T11:32:31.271Z,32.08
2016-10-19T11:33:31.227Z,32.18
2016-10-19T11:34:31.239Z,32.67
2016-10-19T11:35:30.932Z,32.67
2016-10-19T11:36:30.943Z,32.67
2016-10-19T11:37:31.614Z,32.67
2016-10-19T11:38:31.352Z,32.67
2016-10-19T11:39:31.324Z,32.67
2016-10-19T11:40:31.285Z,32.47
2016-10-19T11:41:30.980Z,32.47
2016-10-19T11:42:30.987Z,32.57
2016-10-19T11:43:31.100Z,32.67
2016-10-19T11:44:31.314Z,32.86
2016-10-19T11:45:31.012Z,32.67
2016-10-19T11:46:31.330Z,32.86
2016-10-19T11:47:31.338Z,32.76
2016-10-19T11:48:31.998Z,33.06
2016-10-19T11:49:31.528Z,32.96
2016-10-19T11:50:31.361Z,32.96
2016-10-19T11:51:31.136Z,32.86
2016-10-19T11:52:31.378Z,33.06
2016-10-19T11:53:31.071Z,33.06
2016-10-19T11:54:31.399Z,32.97
2016-10-19T11:55:31.088Z,32.97
2016-10-19T11:56:31.412Z,33.54
2016-10-19T11:57:31.418Z,33.25
2016-10-19T11:58:31.111Z,33.25
2016-10-19T11:59:31.571Z,33.73
2016-10-19T12:00:31.177Z,33.44
2016-10-19T12:01:31.449Z,33.26
2016-10-19T12:02:31.452Z,33.73
2016-10-19T12:03:31.149Z,33.83
2016-10-19T12:04:31.208Z,33.54
2016-10-19T12:05:31.479Z,33.44
2016-10-19T12:06:31.489Z,33.83
2016-10-19T12:07:31.506Z,34.12
2016-10-19T12:08:31.195Z,33.93
2016-10-19T12:09:31.204Z,33.93
2016-10-19T12:10:31.964Z,34.52
2016-10-19T12:11:31.526Z,34.12
2016-10-19T12:12:31.218Z,34.12
2016-10-19T12:13:31.227Z,33.54
2016-10-19T12:14:31.235Z,33.93
2016-10-19T12:15:31.241Z,33.44
2016-10-19T12:16:31.563Z,33.44
2016-10-19T12:17:31.263Z,33.26
2016-10-19T12:18:31.267Z,33.07
2016-10-19T12:19:31.272Z,33.07
2016-10-19T12:20:31.628Z,32.97
2016-10-19T12:21:32.034Z,32.68
2016-10-19T12:22:31.662Z,32.68
2016-10-19T12:23:32.452Z,32.59
2016-10-19T12:24:31.361Z,32.59
2016-10-19T12:25:31.634Z,32.59
2016-10-19T12:26:31.708Z,32.39
2016-10-19T12:27:31.651Z,32.49
2016-10-19T12:28:31.343Z,32.29
2016-10-19T12:29:31.663Z,32.29
2016-10-19T12:30:31.411Z,32.29
2016-10-19T12:31:31.366Z,32.29
2016-10-19T12:32:31.371Z,32.29
2016-10-19T12:33:31.701Z,32.2
2016-10-19T12:34:31.387Z,32
2016-10-19T12:35:31.774Z,32.29
2016-10-19T12:36:31.407Z,32.1
2016-10-19T12:37:31.816Z,32.1
2016-10-19T12:38:31.784Z,32.1
2016-10-19T12:39:31.479Z,31.9
2016-10-19T12:40:31.437Z,31.81
2016-10-19T12:41:31.808Z,31.81
2016-10-19T12:42:31.835Z,31.81
2016-10-19T12:43:31.882Z,31.61
2016-10-19T12:44:31.838Z,31.63
2016-10-19T12:45:31.811Z,31.53
2016-10-19T12:46:31.848Z,31.41
2016-10-19T12:47:31.494Z,31.32
2016-10-19T12:48:31.571Z,31.98
2016-10-19T12:49:31.854Z,32.08
2016-10-19T12:50:32.462Z,32.08
2016-10-19T12:51:31.588Z,31.88
2016-10-19T12:52:31.845Z,32.08
2016-10-19T12:53:31.540Z,31.71
2016-10-19T12:54:31.861Z,31.61
2016-10-19T12:55:31.920Z,31.6
2016-10-19T12:56:31.566Z,31.7
2016-10-19T12:57:31.982Z,31.41
2016-10-19T12:58:31.899Z,31.41
2016-10-19T12:59:32.176Z,31.5
2016-10-19T13:00:31.720Z,31.4
2016-10-19T13:01:31.966Z,31.32